sensor_id;sensor_type;location;lat;lon;timestamp;P1;durP1;ratioP1;P2;durP2;ratioP2
28627;SDS011;15815;46.760;19.604;2022-09-02T00:01:43;1.80;;;0.80;;
28627;SDS011;15815;46.760;19.604;2022-09-02T00:04:11;2.77;;;1.37;;
28627;SDS011;15815;46.760;19.604;2022-09-02T00:06:40;1.63;;;1.00;;
28627;SDS011;15815;46.760;19.604;2022-09-02T00:09:07;5.15;;;1.00;;
28627;SDS011;15815;46.760;19.604;2022-09-02T00:11:35;1.77;;;1.13;;
28627;SDS011;15815;46.760;19.604;2022-09-02T00:14:02;2.70;;;1.02;;
28627;SDS011;15815;46.760;19.604;2022-09-02T00:16:36;1.90;;;1.10;;
28627;SDS011;15815;46.760;19.604;2022-09-02T00:19:03;3.03;;;1.40;;
28627;SDS011;15815;46.760;19.604;2022-09-02T00:21:29;5.28;;;1.20;;
28627;SDS011;15815;46.760;19.604;2022-09-02T00:23:57;1.70;;;1.10;;
28627;SDS011;15815;46.760;19.604;2022-09-02T00:26:23;3.90;;;1.05;;
28627;SDS011;15815;46.760;19.604;2022-09-02T00:28:48;1.67;;;1.00;;
28627;SDS011;15815;46.760;19.604;2022-09-02T00:31:14;2.47;;;1.38;;
28627;SDS011;15815;46.760;19.604;2022-09-02T00:33:39;4.88;;;0.82;;
28627;SDS011;15815;46.760;19.604;2022-09-02T00:36:05;1.13;;;0.73;;
28627;SDS011;15815;46.760;19.604;2022-09-02T00:38:32;2.35;;;0.90;;
28627;SDS011;15815;46.760;19.604;2022-09-02T00:41:00;2.10;;;0.77;;
28627;SDS011;15815;46.760;19.604;2022-09-02T00:43:39;2.42;;;0.93;;
28627;SDS011;15815;46.760;19.604;2022-09-02T00:46:17;1.35;;;0.75;;
28627;SDS011;15815;46.760;19.604;2022-09-02T00:48:47;1.95;;;0.90;;
28627;SDS011;15815;46.760;19.604;2022-09-02T00:51:17;1.52;;;0.82;;
28627;SDS011;15815;46.760;19.604;2022-09-02T00:53:43;3.13;;;1.00;;
28627;SDS011;15815;46.760;19.604;2022-09-02T00:56:13;1.27;;;1.00;;
28627;SDS011;15815;46.760;19.604;2022-09-02T00:58:43;1.25;;;0.88;;
28627;SDS011;15815;46.760;19.604;2022-09-02T01:01:08;1.27;;;1.08;;
28627;SDS011;15815;46.760;19.604;2022-09-02T01:03:35;3.03;;;0.90;;
28627;SDS011;15815;46.760;19.604;2022-09-02T01:06:02;1.38;;;1.13;;
28627;SDS011;15815;46.760;19.604;2022-09-02T01:08:32;4.05;;;1.00;;
28627;SDS011;15815;46.760;19.604;2022-09-02T01:11:00;2.58;;;0.88;;
28627;SDS011;15815;46.760;19.604;2022-09-02T01:13:28;1.20;;;0.88;;
28627;SDS011;15815;46.760;19.604;2022-09-02T01:15:55;1.90;;;1.00;;
28627;SDS011;15815;46.760;19.604;2022-09-02T01:18:27;3.42;;;0.98;;
28627;SDS011;15815;46.760;19.604;2022-09-02T01:20:54;1.85;;;0.90;;
28627;SDS011;15815;46.760;19.604;2022-09-02T01:23:20;2.47;;;0.93;;
28627;SDS011;15815;46.760;19.604;2022-09-02T01:25:46;3.13;;;1.30;;
28627;SDS011;15815;46.760;19.604;2022-09-02T01:28:13;1.45;;;0.90;;
28627;SDS011;15815;46.760;19.604;2022-09-02T01:30:42;1.55;;;0.90;;
28627;SDS011;15815;46.760;19.604;2022-09-02T01:35:38;2.38;;;0.77;;
28627;SDS011;15815;46.760;19.604;2022-09-02T01:38:04;2.03;;;0.77;;
28627;SDS011;15815;46.760;19.604;2022-09-02T01:40:30;1.10;;;0.77;;
28627;SDS011;15815;46.760;19.604;2022-09-02T01:43:01;1.63;;;1.10;;
28627;SDS011;15815;46.760;19.604;2022-09-02T01:45:32;2.05;;;1.15;;
28627;SDS011;15815;46.760;19.604;2022-09-02T01:47:59;6.95;;;1.17;;
28627;SDS011;15815;46.760;19.604;2022-09-02T01:50:25;5.38;;;0.80;;
28627;SDS011;15815;46.760;19.604;2022-09-02T01:52:51;2.15;;;0.98;;
28627;SDS011;15815;46.760;19.604;2022-09-02T01:55:17;1.73;;;1.08;;
28627;SDS011;15815;46.760;19.604;2022-09-02T01:57:42;1.70;;;1.00;;
28627;SDS011;15815;46.760;19.604;2022-09-02T02:00:08;1.08;;;0.70;;
28627;SDS011;15815;46.760;19.604;2022-09-02T02:02:34;3.47;;;1.10;;
28627;SDS011;15815;46.760;19.604;2022-09-02T02:04:59;3.28;;;1.20;;
28627;SDS011;15815;46.760;19.604;2022-09-02T02:07:25;3.38;;;1.10;;
28627;SDS011;15815;46.760;19.604;2022-09-02T02:09:51;1.95;;;0.95;;
28627;SDS011;15815;46.760;19.604;2022-09-02T02:12:17;2.20;;;1.08;;
28627;SDS011;15815;46.760;19.604;2022-09-02T02:14:42;0.63;;;0.60;;
28627;SDS011;15815;46.760;19.604;2022-09-02T02:17:08;1.17;;;0.80;;
28627;SDS011;15815;46.760;19.604;2022-09-02T02:19:33;2.15;;;0.98;;
28627;SDS011;15815;46.760;19.604;2022-09-02T02:21:59;3.47;;;1.20;;
28627;SDS011;15815;46.760;19.604;2022-09-02T02:24:24;4.45;;;0.95;;
28627;SDS011;15815;46.760;19.604;2022-09-02T02:26:49;2.88;;;1.35;;
28627;SDS011;15815;46.760;19.604;2022-09-02T02:29:15;0.70;;;0.60;;
28627;SDS011;15815;46.760;19.604;2022-09-02T02:31:41;2.65;;;1.40;;
28627;SDS011;15815;46.760;19.604;2022-09-02T02:34:07;4.03;;;0.90;;
28627;SDS011;15815;46.760;19.604;2022-09-02T02:36:34;2.60;;;1.08;;
28627;SDS011;15815;46.760;19.604;2022-09-02T02:39:00;1.25;;;0.93;;
28627;SDS011;15815;46.760;19.604;2022-09-02T02:41:26;2.45;;;0.85;;
28627;SDS011;15815;46.760;19.604;2022-09-02T02:43:53;3.40;;;1.27;;
28627;SDS011;15815;46.760;19.604;2022-09-02T02:46:19;1.95;;;1.10;;
28627;SDS011;15815;46.760;19.604;2022-09-02T02:48:44;1.42;;;0.80;;
28627;SDS011;15815;46.760;19.604;2022-09-02T02:51:09;2.65;;;1.00;;
28627;SDS011;15815;46.760;19.604;2022-09-02T02:53:35;3.00;;;0.93;;
28627;SDS011;15815;46.760;19.604;2022-09-02T02:56:01;1.55;;;0.95;;
28627;SDS011;15815;46.760;19.604;2022-09-02T02:58:27;3.15;;;1.05;;
28627;SDS011;15815;46.760;19.604;2022-09-02T03:00:53;2.30;;;1.10;;
28627;SDS011;15815;46.760;19.604;2022-09-02T03:03:19;1.65;;;0.90;;
28627;SDS011;15815;46.760;19.604;2022-09-02T03:05:46;1.58;;;0.90;;
28627;SDS011;15815;46.760;19.604;2022-09-02T03:08:13;3.33;;;1.00;;
28627;SDS011;15815;46.760;19.604;2022-09-02T03:10:40;1.90;;;1.00;;
28627;SDS011;15815;46.760;19.604;2022-09-02T03:13:06;3.38;;;1.00;;
28627;SDS011;15815;46.760;19.604;2022-09-02T03:15:34;5.80;;;1.10;;
28627;SDS011;15815;46.760;19.604;2022-09-02T03:18:00;2.40;;;1.00;;
28627;SDS011;15815;46.760;19.604;2022-09-02T03:20:26;2.55;;;0.80;;
28627;SDS011;15815;46.760;19.604;2022-09-02T03:22:53;4.25;;;1.30;;
28627;SDS011;15815;46.760;19.604;2022-09-02T03:25:21;2.08;;;1.10;;
28627;SDS011;15815;46.760;19.604;2022-09-02T03:27:48;2.30;;;1.10;;
28627;SDS011;15815;46.760;19.604;2022-09-02T03:30:15;3.42;;;0.70;;
28627;SDS011;15815;46.760;19.604;2022-09-02T03:32:43;3.13;;;1.02;;
28627;SDS011;15815;46.760;19.604;2022-09-02T03:35:11;1.95;;;0.90;;
28627;SDS011;15815;46.760;19.604;2022-09-02T03:37:39;3.40;;;0.82;;
28627;SDS011;15815;46.760;19.604;2022-09-02T03:40:05;1.55;;;0.93;;
28627;SDS011;15815;46.760;19.604;2022-09-02T03:42:33;1.20;;;1.00;;
28627;SDS011;15815;46.760;19.604;2022-09-02T03:44:58;2.05;;;0.98;;
28627;SDS011;15815;46.760;19.604;2022-09-02T03:47:24;2.03;;;1.50;;
28627;SDS011;15815;46.760;19.604;2022-09-02T03:49:52;2.55;;;1.15;;
28627;SDS011;15815;46.760;19.604;2022-09-02T03:52:18;1.55;;;0.80;;
28627;SDS011;15815;46.760;19.604;2022-09-02T03:54:44;1.65;;;0.95;;
28627;SDS011;15815;46.760;19.604;2022-09-02T03:57:09;2.15;;;1.17;;
28627;SDS011;15815;46.760;19.604;2022-09-02T03:59:35;1.48;;;0.80;;
28627;SDS011;15815;46.760;19.604;2022-09-02T04:02:00;2.22;;;1.00;;
28627;SDS011;15815;46.760;19.604;2022-09-02T04:04:27;2.30;;;1.33;;
28627;SDS011;15815;46.760;19.604;2022-09-02T04:06:53;4.40;;;1.00;;
28627;SDS011;15815;46.760;19.604;2022-09-02T04:09:19;4.38;;;1.10;;
28627;SDS011;15815;46.760;19.604;2022-09-02T04:11:44;2.28;;;1.02;;
28627;SDS011;15815;46.760;19.604;2022-09-02T04:14:10;5.05;;;1.08;;
28627;SDS011;15815;46.760;19.604;2022-09-02T04:16:35;1.10;;;0.73;;
28627;SDS011;15815;46.760;19.604;2022-09-02T04:19:01;1.48;;;0.88;;
28627;SDS011;15815;46.760;19.604;2022-09-02T04:21:27;2.80;;;1.33;;
28627;SDS011;15815;46.760;19.604;2022-09-02T04:23:55;2.80;;;0.90;;
28627;SDS011;15815;46.760;19.604;2022-09-02T04:26:21;1.58;;;1.00;;
28627;SDS011;15815;46.760;19.604;2022-09-02T04:28:47;2.65;;;1.27;;
28627;SDS011;15815;46.760;19.604;2022-09-02T04:31:14;2.00;;;1.10;;
28627;SDS011;15815;46.760;19.604;2022-09-02T04:33:41;3.53;;;1.73;;
28627;SDS011;15815;46.760;19.604;2022-09-02T04:36:09;3.35;;;1.00;;
28627;SDS011;15815;46.760;19.604;2022-09-02T04:38:37;3.63;;;1.13;;
28627;SDS011;15815;46.760;19.604;2022-09-02T04:41:07;4.05;;;1.38;;
28627;SDS011;15815;46.760;19.604;2022-09-02T04:43:37;2.33;;;1.65;;
28627;SDS011;15815;46.760;19.604;2022-09-02T04:46:06;3.05;;;1.40;;
28627;SDS011;15815;46.760;19.604;2022-09-02T04:48:33;5.18;;;1.20;;
28627;SDS011;15815;46.760;19.604;2022-09-02T04:51:34;4.03;;;1.70;;
28627;SDS011;15815;46.760;19.604;2022-09-02T04:53:52;4.45;;;1.80;;
28627;SDS011;15815;46.760;19.604;2022-09-02T04:56:20;2.70;;;1.65;;
28627;SDS011;15815;46.760;19.604;2022-09-02T04:58:47;4.75;;;1.63;;
28627;SDS011;15815;46.760;19.604;2022-09-02T05:01:16;3.83;;;1.30;;
28627;SDS011;15815;46.760;19.604;2022-09-02T05:03:45;2.10;;;1.02;;
28627;SDS011;15815;46.760;19.604;2022-09-02T05:06:12;2.40;;;1.40;;
28627;SDS011;15815;46.760;19.604;2022-09-02T05:08:40;2.28;;;1.10;;
28627;SDS011;15815;46.760;19.604;2022-09-02T05:11:18;2.67;;;0.95;;
28627;SDS011;15815;46.760;19.604;2022-09-02T05:13:46;4.68;;;1.30;;
28627;SDS011;15815;46.760;19.604;2022-09-02T05:16:15;1.55;;;1.00;;
28627;SDS011;15815;46.760;19.604;2022-09-02T05:18:41;3.15;;;1.20;;
28627;SDS011;15815;46.760;19.604;2022-09-02T05:21:06;1.83;;;0.98;;
28627;SDS011;15815;46.760;19.604;2022-09-02T05:23:32;2.00;;;0.95;;
28627;SDS011;15815;46.760;19.604;2022-09-02T05:26:01;3.80;;;1.40;;
28627;SDS011;15815;46.760;19.604;2022-09-02T05:28:28;4.80;;;1.52;;
28627;SDS011;15815;46.760;19.604;2022-09-02T05:30:53;1.50;;;1.00;;
28627;SDS011;15815;46.760;19.604;2022-09-02T05:33:18;3.95;;;1.15;;
28627;SDS011;15815;46.760;19.604;2022-09-02T05:35:44;1.95;;;1.00;;
28627;SDS011;15815;46.760;19.604;2022-09-02T05:38:09;2.45;;;1.10;;
28627;SDS011;15815;46.760;19.604;2022-09-02T05:40:35;3.38;;;1.02;;
28627;SDS011;15815;46.760;19.604;2022-09-02T05:43:02;4.65;;;1.65;;
28627;SDS011;15815;46.760;19.604;2022-09-02T05:45:28;3.95;;;1.08;;
28627;SDS011;15815;46.760;19.604;2022-09-02T05:47:53;2.35;;;1.20;;
28627;SDS011;15815;46.760;19.604;2022-09-02T05:50:18;1.95;;;1.20;;
28627;SDS011;15815;46.760;19.604;2022-09-02T05:52:44;4.70;;;1.40;;
28627;SDS011;15815;46.760;19.604;2022-09-02T05:55:13;2.22;;;1.30;;
28627;SDS011;15815;46.760;19.604;2022-09-02T05:57:38;2.72;;;1.30;;
28627;SDS011;15815;46.760;19.604;2022-09-02T06:00:04;1.90;;;1.35;;
28627;SDS011;15815;46.760;19.604;2022-09-02T06:02:31;2.83;;;1.50;;
28627;SDS011;15815;46.760;19.604;2022-09-02T06:04:56;4.30;;;1.40;;
28627;SDS011;15815;46.760;19.604;2022-09-02T06:07:23;4.43;;;1.23;;
28627;SDS011;15815;46.760;19.604;2022-09-02T06:09:50;4.03;;;1.00;;
28627;SDS011;15815;46.760;19.604;2022-09-02T06:12:16;2.45;;;1.27;;
28627;SDS011;15815;46.760;19.604;2022-09-02T06:14:44;2.03;;;1.25;;
28627;SDS011;15815;46.760;19.604;2022-09-02T06:17:11;3.50;;;1.35;;
28627;SDS011;15815;46.760;19.604;2022-09-02T06:19:36;6.00;;;1.55;;
28627;SDS011;15815;46.760;19.604;2022-09-02T06:22:02;2.13;;;1.38;;
28627;SDS011;15815;46.760;19.604;2022-09-02T06:24:28;3.05;;;1.50;;
28627;SDS011;15815;46.760;19.604;2022-09-02T06:26:55;3.65;;;1.30;;
28627;SDS011;15815;46.760;19.604;2022-09-02T06:29:21;4.25;;;1.10;;
28627;SDS011;15815;46.760;19.604;2022-09-02T06:31:48;4.00;;;1.27;;
28627;SDS011;15815;46.760;19.604;2022-09-02T06:34:15;3.28;;;1.30;;
28627;SDS011;15815;46.760;19.604;2022-09-02T06:36:42;4.63;;;1.40;;
28627;SDS011;15815;46.760;19.604;2022-09-02T06:39:11;2.90;;;1.17;;
28627;SDS011;15815;46.760;19.604;2022-09-02T06:41:40;3.08;;;1.23;;
28627;SDS011;15815;46.760;19.604;2022-09-02T06:44:07;3.70;;;1.33;;
28627;SDS011;15815;46.760;19.604;2022-09-02T06:46:35;2.53;;;1.10;;
28627;SDS011;15815;46.760;19.604;2022-09-02T06:49:03;5.10;;;1.50;;
28627;SDS011;15815;46.760;19.604;2022-09-02T06:51:31;7.05;;;1.90;;
28627;SDS011;15815;46.760;19.604;2022-09-02T06:53:58;4.05;;;1.80;;
28627;SDS011;15815;46.760;19.604;2022-09-02T06:56:25;3.13;;;1.48;;
28627;SDS011;15815;46.760;19.604;2022-09-02T06:58:51;3.22;;;1.55;;
28627;SDS011;15815;46.760;19.604;2022-09-02T07:01:20;3.40;;;1.42;;
28627;SDS011;15815;46.760;19.604;2022-09-02T07:03:50;2.10;;;1.15;;
28627;SDS011;15815;46.760;19.604;2022-09-02T07:06:35;3.15;;;1.50;;
28627;SDS011;15815;46.760;19.604;2022-09-02T07:09:05;3.92;;;1.50;;
28627;SDS011;15815;46.760;19.604;2022-09-02T07:11:32;3.45;;;1.30;;
28627;SDS011;15815;46.760;19.604;2022-09-02T07:13:58;3.47;;;1.15;;
28627;SDS011;15815;46.760;19.604;2022-09-02T07:16:25;4.80;;;1.58;;
28627;SDS011;15815;46.760;19.604;2022-09-02T07:18:57;3.90;;;1.48;;
28627;SDS011;15815;46.760;19.604;2022-09-02T07:21:25;3.28;;;1.50;;
28627;SDS011;15815;46.760;19.604;2022-09-02T07:23:54;4.63;;;1.45;;
28627;SDS011;15815;46.760;19.604;2022-09-02T07:26:24;3.28;;;1.40;;
28627;SDS011;15815;46.760;19.604;2022-09-02T07:28:50;2.80;;;1.50;;
28627;SDS011;15815;46.760;19.604;2022-09-02T07:31:16;4.38;;;1.73;;
28627;SDS011;15815;46.760;19.604;2022-09-02T07:33:42;3.55;;;1.30;;
28627;SDS011;15815;46.760;19.604;2022-09-02T07:36:09;2.45;;;1.50;;
28627;SDS011;15815;46.760;19.604;2022-09-02T07:38:37;3.67;;;1.45;;
28627;SDS011;15815;46.760;19.604;2022-09-02T07:41:05;2.50;;;1.40;;
28627;SDS011;15815;46.760;19.604;2022-09-02T07:43:32;2.47;;;1.52;;
28627;SDS011;15815;46.760;19.604;2022-09-02T07:45:58;8.43;;;1.90;;
28627;SDS011;15815;46.760;19.604;2022-09-02T07:48:25;1.88;;;1.30;;
28627;SDS011;15815;46.760;19.604;2022-09-02T07:50:51;5.30;;;1.85;;
28627;SDS011;15815;46.760;19.604;2022-09-02T07:53:17;2.35;;;1.40;;
28627;SDS011;15815;46.760;19.604;2022-09-02T07:55:42;2.17;;;1.50;;
28627;SDS011;15815;46.760;19.604;2022-09-02T07:58:09;3.13;;;1.90;;
28627;SDS011;15815;46.760;19.604;2022-09-02T08:00:35;4.07;;;1.52;;
28627;SDS011;15815;46.760;19.604;2022-09-02T08:03:01;7.72;;;1.90;;
28627;SDS011;15815;46.760;19.604;2022-09-02T08:05:27;2.75;;;1.83;;
28627;SDS011;15815;46.760;19.604;2022-09-02T08:07:53;3.03;;;1.42;;
28627;SDS011;15815;46.760;19.604;2022-09-02T08:10:18;8.93;;;1.98;;
28627;SDS011;15815;46.760;19.604;2022-09-02T08:12:45;3.15;;;1.95;;
28627;SDS011;15815;46.760;19.604;2022-09-02T08:15:11;4.90;;;1.80;;
28627;SDS011;15815;46.760;19.604;2022-09-02T08:17:38;2.85;;;1.90;;
28627;SDS011;15815;46.760;19.604;2022-09-02T08:20:05;6.90;;;1.95;;
28627;SDS011;15815;46.760;19.604;2022-09-02T08:22:35;5.22;;;2.38;;
28627;SDS011;15815;46.760;19.604;2022-09-02T08:25:01;4.03;;;1.83;;
28627;SDS011;15815;46.760;19.604;2022-09-02T08:27:27;5.00;;;1.73;;
28627;SDS011;15815;46.760;19.604;2022-09-02T08:29:52;5.15;;;1.65;;
28627;SDS011;15815;46.760;19.604;2022-09-02T08:32:18;4.13;;;1.45;;
28627;SDS011;15815;46.760;19.604;2022-09-02T08:34:43;4.00;;;2.17;;
28627;SDS011;15815;46.760;19.604;2022-09-02T08:37:09;6.60;;;2.25;;
28627;SDS011;15815;46.760;19.604;2022-09-02T08:39:34;3.28;;;1.85;;
28627;SDS011;15815;46.760;19.604;2022-09-02T08:44:50;7.72;;;2.72;;
28627;SDS011;15815;46.760;19.604;2022-09-02T08:47:20;7.30;;;2.13;;
28627;SDS011;15815;46.760;19.604;2022-09-02T08:49:50;5.82;;;1.90;;
28627;SDS011;15815;46.760;19.604;2022-09-02T08:52:30;3.75;;;1.95;;
28627;SDS011;15815;46.760;19.604;2022-09-02T08:55:02;5.43;;;2.10;;
28627;SDS011;15815;46.760;19.604;2022-09-02T08:57:30;5.28;;;2.30;;
28627;SDS011;15815;46.760;19.604;2022-09-02T08:59:56;6.03;;;2.00;;
28627;SDS011;15815;46.760;19.604;2022-09-02T09:12:31;4.45;;;2.30;;
28627;SDS011;15815;46.760;19.604;2022-09-02T09:15:30;6.47;;;2.38;;
28627;SDS011;15815;46.760;19.604;2022-09-02T09:18:13;4.68;;;2.00;;
28627;SDS011;15815;46.760;19.604;2022-09-02T09:20:43;5.38;;;2.30;;
28627;SDS011;15815;46.760;19.604;2022-09-02T09:23:18;4.93;;;2.10;;
28627;SDS011;15815;46.760;19.604;2022-09-02T09:25:49;3.72;;;2.15;;
28627;SDS011;15815;46.760;19.604;2022-09-02T09:28:18;7.57;;;2.38;;
28627;SDS011;15815;46.760;19.604;2022-09-02T09:30:44;7.38;;;2.55;;
28627;SDS011;15815;46.760;19.604;2022-09-02T09:33:09;3.80;;;2.03;;
28627;SDS011;15815;46.760;19.604;2022-09-02T09:35:47;6.80;;;2.42;;
28627;SDS011;15815;46.760;19.604;2022-09-02T09:38:13;3.95;;;1.90;;
28627;SDS011;15815;46.760;19.604;2022-09-02T09:40:39;5.68;;;2.08;;
28627;SDS011;15815;46.760;19.604;2022-09-02T09:50:41;8.60;;;2.20;;
28627;SDS011;15815;46.760;19.604;2022-09-02T09:53:39;3.83;;;2.40;;
28627;SDS011;15815;46.760;19.604;2022-09-02T10:01:20;8.03;;;2.43;;
28627;SDS011;15815;46.760;19.604;2022-09-02T10:03:50;6.80;;;2.80;;
28627;SDS011;15815;46.760;19.604;2022-09-02T10:08:56;6.63;;;2.15;;
28627;SDS011;15815;46.760;19.604;2022-09-02T10:12:09;4.97;;;2.42;;
28627;SDS011;15815;46.760;19.604;2022-09-02T10:14:20;5.38;;;2.60;;
28627;SDS011;15815;46.760;19.604;2022-09-02T10:16:54;5.03;;;2.30;;
28627;SDS011;15815;46.760;19.604;2022-09-02T10:19:30;8.75;;;2.30;;
28627;SDS011;15815;46.760;19.604;2022-09-02T10:22:36;6.13;;;2.25;;
28627;SDS011;15815;46.760;19.604;2022-09-02T10:25:06;4.32;;;2.45;;
28627;SDS011;15815;46.760;19.604;2022-09-02T10:30:22;6.53;;;2.90;;
28627;SDS011;15815;46.760;19.604;2022-09-02T10:35:53;7.20;;;2.42;;
28627;SDS011;15815;46.760;19.604;2022-09-02T10:44:13;5.93;;;2.22;;
28627;SDS011;15815;46.760;19.604;2022-09-02T10:52:58;7.57;;;2.63;;
28627;SDS011;15815;46.760;19.604;2022-09-02T10:58:02;4.15;;;2.20;;
28627;SDS011;15815;46.760;19.604;2022-09-02T11:00:32;4.53;;;2.20;;
28627;SDS011;15815;46.760;19.604;2022-09-02T11:05:48;4.07;;;2.05;;
28627;SDS011;15815;46.760;19.604;2022-09-02T11:08:19;5.22;;;2.53;;
28627;SDS011;15815;46.760;19.604;2022-09-02T11:11:00;4.95;;;2.28;;
28627;SDS011;15815;46.760;19.604;2022-09-02T11:16:18;6.05;;;2.78;;
28627;SDS011;15815;46.760;19.604;2022-09-02T11:25:06;8.45;;;2.63;;
28627;SDS011;15815;46.760;19.604;2022-09-02T11:27:15;4.60;;;2.08;;
28627;SDS011;15815;46.760;19.604;2022-09-02T11:29:50;6.53;;;2.28;;
28627;SDS011;15815;46.760;19.604;2022-09-02T11:32:28;8.48;;;2.35;;
28627;SDS011;15815;46.760;19.604;2022-09-02T11:35:03;5.78;;;2.80;;
28627;SDS011;15815;46.760;19.604;2022-09-02T11:37:43;13.18;;;3.05;;
28627;SDS011;15815;46.760;19.604;2022-09-02T11:41:03;6.65;;;2.72;;
28627;SDS011;15815;46.760;19.604;2022-09-02T11:46:11;7.90;;;2.42;;
28627;SDS011;15815;46.760;19.604;2022-09-02T11:49:06;7.80;;;2.78;;
28627;SDS011;15815;46.760;19.604;2022-09-02T11:51:53;4.68;;;2.58;;
28627;SDS011;15815;46.760;19.604;2022-09-02T11:54:31;6.40;;;2.83;;
28627;SDS011;15815;46.760;19.604;2022-09-02T11:57:05;4.32;;;2.30;;
28627;SDS011;15815;46.760;19.604;2022-09-02T12:02:35;7.55;;;2.95;;
28627;SDS011;15815;46.760;19.604;2022-09-02T12:07:53;6.25;;;2.50;;
28627;SDS011;15815;46.760;19.604;2022-09-02T12:13:45;8.35;;;3.70;;
28627;SDS011;15815;46.760;19.604;2022-09-02T12:21:18;5.00;;;2.33;;
28627;SDS011;15815;46.760;19.604;2022-09-02T12:26:17;6.82;;;2.28;;
28627;SDS011;15815;46.760;19.604;2022-09-02T12:28:45;5.28;;;2.58;;
28627;SDS011;15815;46.760;19.604;2022-09-02T12:33:43;7.70;;;2.90;;
28627;SDS011;15815;46.760;19.604;2022-09-02T12:41:48;7.75;;;2.60;;
28627;SDS011;15815;46.760;19.604;2022-09-02T12:47:24;4.43;;;2.65;;
28627;SDS011;15815;46.760;19.604;2022-09-02T12:50:08;7.07;;;3.22;;
28627;SDS011;15815;46.760;19.604;2022-09-02T12:55:11;3.53;;;2.37;;
28627;SDS011;15815;46.760;19.604;2022-09-02T12:57:45;7.10;;;2.50;;
28627;SDS011;15815;46.760;19.604;2022-09-02T13:00:15;5.97;;;2.40;;
28627;SDS011;15815;46.760;19.604;2022-09-02T13:06:09;5.43;;;2.33;;
28627;SDS011;15815;46.760;19.604;2022-09-02T13:11:39;5.53;;;2.25;;
28627;SDS011;15815;46.760;19.604;2022-09-02T13:14:30;6.35;;;2.40;;
28627;SDS011;15815;46.760;19.604;2022-09-02T13:17:21;5.60;;;2.67;;
28627;SDS011;15815;46.760;19.604;2022-09-02T13:25:49;6.82;;;2.85;;
28627;SDS011;15815;46.760;19.604;2022-09-02T13:31:10;3.93;;;2.60;;
28627;SDS011;15815;46.760;19.604;2022-09-02T13:33:43;3.58;;;2.10;;
28627;SDS011;15815;46.760;19.604;2022-09-02T13:36:09;6.60;;;2.30;;
28627;SDS011;15815;46.760;19.604;2022-09-02T13:38:34;9.15;;;2.47;;
28627;SDS011;15815;46.760;19.604;2022-09-02T13:41:00;8.20;;;2.55;;
28627;SDS011;15815;46.760;19.604;2022-09-02T13:43:26;6.65;;;2.60;;
28627;SDS011;15815;46.760;19.604;2022-09-02T13:45:52;5.70;;;2.78;;
28627;SDS011;15815;46.760;19.604;2022-09-02T13:48:24;7.95;;;3.28;;
28627;SDS011;15815;46.760;19.604;2022-09-02T13:50:51;7.07;;;2.78;;
28627;SDS011;15815;46.760;19.604;2022-09-02T13:56:03;6.00;;;2.60;;
28627;SDS011;15815;46.760;19.604;2022-09-02T13:58:36;6.22;;;2.60;;
28627;SDS011;15815;46.760;19.604;2022-09-02T14:03:46;4.10;;;2.53;;
28627;SDS011;15815;46.760;19.604;2022-09-02T14:06:14;4.32;;;2.78;;
28627;SDS011;15815;46.760;19.604;2022-09-02T14:08:41;9.63;;;2.67;;
28627;SDS011;15815;46.760;19.604;2022-09-02T14:11:08;2.80;;;1.98;;
28627;SDS011;15815;46.760;19.604;2022-09-02T14:13:41;3.22;;;2.33;;
28627;SDS011;15815;46.760;19.604;2022-09-02T14:16:23;9.48;;;2.97;;
28627;SDS011;15815;46.760;19.604;2022-09-02T14:19:08;10.98;;;2.58;;
28627;SDS011;15815;46.760;19.604;2022-09-02T14:21:43;3.70;;;2.22;;
28627;SDS011;15815;46.760;19.604;2022-09-02T14:24:11;4.05;;;2.28;;
28627;SDS011;15815;46.760;19.604;2022-09-02T14:26:43;5.18;;;2.50;;
28627;SDS011;15815;46.760;19.604;2022-09-02T14:31:40;3.10;;;1.90;;
28627;SDS011;15815;46.760;19.604;2022-09-02T14:36:57;4.10;;;2.00;;
28627;SDS011;15815;46.760;19.604;2022-09-02T14:39:23;4.63;;;2.40;;
28627;SDS011;15815;46.760;19.604;2022-09-02T14:41:49;6.50;;;1.95;;
28627;SDS011;15815;46.760;19.604;2022-09-02T14:44:17;6.72;;;2.28;;
28627;SDS011;15815;46.760;19.604;2022-09-02T14:46:52;9.50;;;2.40;;
28627;SDS011;15815;46.760;19.604;2022-09-02T14:49:21;5.70;;;2.55;;
28627;SDS011;15815;46.760;19.604;2022-09-02T14:51:54;8.02;;;2.65;;
28627;SDS011;15815;46.760;19.604;2022-09-02T14:54:37;4.55;;;2.17;;
28627;SDS011;15815;46.760;19.604;2022-09-02T14:59:45;2.58;;;1.65;;
28627;SDS011;15815;46.760;19.604;2022-09-02T15:04:54;2.95;;;1.55;;
28627;SDS011;15815;46.760;19.604;2022-09-02T15:07:21;3.63;;;1.77;;
28627;SDS011;15815;46.760;19.604;2022-09-02T15:09:48;3.90;;;2.20;;
28627;SDS011;15815;46.760;19.604;2022-09-02T15:12:20;3.42;;;2.03;;
28627;SDS011;15815;46.760;19.604;2022-09-02T15:14:51;5.00;;;1.80;;
28627;SDS011;15815;46.760;19.604;2022-09-02T15:17:17;4.55;;;2.00;;
28627;SDS011;15815;46.760;19.604;2022-09-02T15:19:43;4.53;;;2.22;;
28627;SDS011;15815;46.760;19.604;2022-09-02T15:22:09;2.33;;;1.80;;
28627;SDS011;15815;46.760;19.604;2022-09-02T15:24:34;7.60;;;1.95;;
28627;SDS011;15815;46.760;19.604;2022-09-02T15:27:00;3.72;;;1.80;;
28627;SDS011;15815;46.760;19.604;2022-09-02T15:29:25;3.88;;;1.85;;
28627;SDS011;15815;46.760;19.604;2022-09-02T15:31:51;2.65;;;1.67;;
28627;SDS011;15815;46.760;19.604;2022-09-02T15:34:17;3.65;;;2.08;;
28627;SDS011;15815;46.760;19.604;2022-09-02T15:36:43;7.75;;;1.98;;
28627;SDS011;15815;46.760;19.604;2022-09-02T15:39:09;5.10;;;1.80;;
28627;SDS011;15815;46.760;19.604;2022-09-02T15:41:35;4.28;;;2.28;;
28627;SDS011;15815;46.760;19.604;2022-09-02T15:44:03;4.70;;;2.30;;
28627;SDS011;15815;46.760;19.604;2022-09-02T15:46:30;5.50;;;4.07;;
28627;SDS011;15815;46.760;19.604;2022-09-02T15:49:01;3.28;;;2.22;;
28627;SDS011;15815;46.760;19.604;2022-09-02T15:51:31;5.85;;;2.03;;
28627;SDS011;15815;46.760;19.604;2022-09-02T15:53:57;5.07;;;1.88;;
28627;SDS011;15815;46.760;19.604;2022-09-02T15:56:25;3.70;;;1.98;;
28627;SDS011;15815;46.760;19.604;2022-09-02T15:58:59;4.10;;;1.90;;
28627;SDS011;15815;46.760;19.604;2022-09-02T16:01:27;3.67;;;1.80;;
28627;SDS011;15815;46.760;19.604;2022-09-02T16:03:57;4.22;;;1.85;;
28627;SDS011;15815;46.760;19.604;2022-09-02T16:06:24;5.03;;;2.13;;
28627;SDS011;15815;46.760;19.604;2022-09-02T16:08:49;2.88;;;1.58;;
28627;SDS011;15815;46.760;19.604;2022-09-02T16:11:15;4.43;;;1.83;;
28627;SDS011;15815;46.760;19.604;2022-09-02T16:13:41;3.72;;;2.00;;
28627;SDS011;15815;46.760;19.604;2022-09-02T16:16:08;3.13;;;1.83;;
28627;SDS011;15815;46.760;19.604;2022-09-02T16:18:35;3.70;;;1.77;;
28627;SDS011;15815;46.760;19.604;2022-09-02T16:21:02;2.15;;;1.67;;
28627;SDS011;15815;46.760;19.604;2022-09-02T16:23:28;5.43;;;2.05;;
28627;SDS011;15815;46.760;19.604;2022-09-02T16:28:43;2.05;;;1.60;;
28627;SDS011;15815;46.760;19.604;2022-09-02T16:31:11;3.03;;;1.92;;
28627;SDS011;15815;46.760;19.604;2022-09-02T16:33:41;3.50;;;1.90;;
28627;SDS011;15815;46.760;19.604;2022-09-02T16:36:08;2.33;;;1.35;;
28627;SDS011;15815;46.760;19.604;2022-09-02T16:38:35;5.13;;;1.92;;
28627;SDS011;15815;46.760;19.604;2022-09-02T16:41:01;4.75;;;1.80;;
28627;SDS011;15815;46.760;19.604;2022-09-02T16:43:28;4.20;;;2.13;;
28627;SDS011;15815;46.760;19.604;2022-09-02T16:45:57;2.50;;;1.88;;
28627;SDS011;15815;46.760;19.604;2022-09-02T16:48:28;2.80;;;1.77;;
28627;SDS011;15815;46.760;19.604;2022-09-02T16:51:01;4.53;;;2.13;;
28627;SDS011;15815;46.760;19.604;2022-09-02T16:53:28;5.13;;;1.95;;